createdAt,value
2022-09-16T00:19:21.808Z,11.83
2022-09-16T00:50:24.442Z,11.53
2022-09-16T01:19:28.443Z,11.74
2022-09-16T01:48:42.091Z,11.33
2022-09-16T01:52:11.937Z,11.26
2022-09-16T02:25:35.927Z,10.85
2022-09-16T02:28:15.138Z,10.93
2022-09-16T02:30:52.192Z,10.99
2022-09-16T02:33:20.025Z,10.84
2022-09-16T02:35:50.106Z,10.86
2022-09-16T02:38:24.591Z,11.15
2022-09-16T02:40:55.150Z,10.93
2022-09-16T02:43:22.602Z,10.89
2022-09-16T02:46:00.273Z,10.84
2022-09-16T02:48:40.856Z,10.89
2022-09-16T02:51:16.447Z,11.00
2022-09-16T02:53:57.582Z,11.21
2022-09-16T02:56:34.317Z,11.10
2022-09-16T02:59:02.825Z,11.15
2022-09-16T03:01:33.819Z,11.11
2022-09-16T03:04:00.387Z,11.06
2022-09-16T03:06:29.092Z,11.36
2022-09-16T03:08:59.607Z,10.88
2022-09-16T03:11:32.189Z,10.99
2022-09-16T03:14:23.614Z,10.87
2022-09-16T03:17:31.477Z,10.87
2022-09-16T03:20:23.210Z,10.93
2022-09-16T03:23:21.481Z,10.84
2022-09-16T03:26:15.928Z,10.90
2022-09-16T03:29:04.394Z,10.71
2022-09-16T03:32:28.009Z,11.06
2022-09-16T03:35:13.045Z,10.91
2022-09-16T03:37:46.982Z,10.85
2022-09-16T03:40:19.423Z,10.80
2022-09-16T03:42:48.547Z,10.57
2022-09-16T03:45:22.419Z,10.53
2022-09-16T03:50:39.340Z,10.90
2022-09-16T03:53:19.136Z,10.85
2022-09-16T03:55:48.338Z,10.56
2022-09-16T03:58:15.187Z,10.73
2022-09-16T04:00:41.621Z,10.73
2022-09-16T04:03:08.135Z,10.39
2022-09-16T04:05:34.632Z,10.81
2022-09-16T04:08:01.092Z,10.79
2022-09-16T04:10:27.533Z,10.93
2022-09-16T04:12:57.603Z,10.83
2022-09-16T04:15:24.081Z,10.89
2022-09-16T04:17:50.492Z,10.63
2022-09-16T04:20:17.044Z,10.69
2022-09-16T04:22:43.492Z,10.98
2022-09-16T04:25:10.114Z,10.78
2022-09-16T04:27:36.574Z,10.89
2022-09-16T04:30:03.193Z,10.67
2022-09-16T04:32:29.660Z,10.62
2022-09-16T04:39:04.368Z,10.64
2022-09-16T04:41:30.768Z,10.59
2022-09-16T04:47:09.705Z,10.72
2022-09-16T04:52:26.937Z,10.53
2022-09-16T04:54:58.387Z,10.67
2022-09-16T04:57:32.798Z,10.20
2022-09-16T05:00:08.822Z,10.31
2022-09-16T05:02:54.969Z,10.47
2022-09-16T05:20:19.367Z,10.34
2022-09-16T05:46:54.946Z,10.45
2022-09-16T06:39:04.323Z,11.08
2022-09-16T06:45:39.491Z,11.27
2022-09-16T06:48:11.893Z,11.16
2022-09-16T06:50:44.296Z,11.58
2022-09-16T06:53:21.752Z,11.40
2022-09-16T07:13:54.407Z,11.75
2022-09-16T07:16:36.089Z,11.63
2022-09-16T07:19:03.075Z,11.68
2022-09-16T07:21:30.710Z,11.57
2022-09-16T07:24:02.646Z,11.86
2022-09-16T07:26:53.884Z,11.74
2022-09-16T07:30:08.839Z,11.73
2022-09-16T07:40:21.121Z,12.41
2022-09-16T07:42:49.547Z,12.49
2022-09-16T07:45:16.454Z,12.27
2022-09-16T07:48:02.677Z,12.44
2022-09-16T07:50:29.230Z,12.32
2022-09-16T07:52:59.650Z,12.18
2022-09-16T07:55:32.445Z,12.75
2022-09-16T07:58:06.869Z,12.70
2022-09-16T08:00:39.270Z,12.60
2022-09-16T08:03:06.399Z,12.33
2022-09-16T08:05:35.482Z,12.61
2022-09-16T08:08:04.508Z,12.94
2022-09-16T08:10:32.561Z,12.89
2022-09-16T08:13:03.718Z,13.25
2022-09-16T08:15:30.863Z,12.77
2022-09-16T08:18:01.069Z,12.75
2022-09-16T08:20:31.777Z,12.70
2022-09-16T08:23:12.646Z,12.65
2022-09-16T08:25:54.532Z,13.15
2022-09-16T08:28:23.826Z,13.33
2022-09-16T08:30:59.473Z,13.34
2022-09-16T08:33:33.293Z,13.36
2022-09-16T08:40:08.912Z,13.14
2022-09-16T08:46:20.915Z,13.66
2022-09-16T08:52:55.199Z,13.92
2022-09-16T08:55:37.766Z,13.56
2022-09-16T08:58:18.258Z,13.67
2022-09-16T09:00:47.475Z,13.42
2022-09-16T09:03:38.909Z,13.90
2022-09-16T09:06:21.405Z,13.64
2022-09-16T09:09:09.313Z,13.68
2022-09-16T09:12:11.360Z,13.74
2022-09-16T09:14:57.543Z,13.53
2022-09-16T09:18:16.528Z,13.60
2022-09-16T09:20:56.574Z,13.99
2022-09-16T09:23:25.965Z,14.05
2022-09-16T09:26:21.081Z,13.79
2022-09-16T09:29:06.165Z,14.15
2022-09-16T09:32:18.869Z,14.63
2022-09-16T09:35:28.027Z,14.30
2022-09-16T09:38:04.449Z,14.48
2022-09-16T09:40:37.042Z,14.39
2022-09-16T09:43:16.525Z,14.54
2022-09-16T09:45:56.539Z,14.53
2022-09-16T09:48:46.378Z,14.14
2022-09-16T09:51:38.911Z,14.43
2022-09-16T09:54:28.845Z,14.59
2022-09-16T09:57:06.268Z,14.64
2022-09-16T09:59:55.754Z,15.01
2022-09-16T10:02:23.647Z,14.85
2022-09-16T10:04:50.872Z,15.10
2022-09-16T10:07:23.723Z,14.93
2022-09-16T10:10:34.867Z,15.13
2022-09-16T10:13:18.235Z,14.66
2022-09-16T10:15:45.158Z,14.41
2022-09-16T10:18:24.517Z,14.94
2022-09-16T10:21:10.660Z,14.65
2022-09-16T10:23:39.423Z,14.33
2022-09-16T10:26:41.541Z,14.49
2022-09-16T10:37:02.613Z,14.89
2022-09-16T10:43:18.475Z,15.41
2022-09-16T10:57:31.088Z,15.22
2022-09-16T12:31:43.428Z,17.06
2022-09-16T12:38:34.708Z,17.29
2022-09-16T12:44:46.422Z,17.18
2022-09-16T12:48:30.128Z,16.98
2022-09-16T12:51:08.571Z,16.45
2022-09-16T13:02:32.974Z,16.92
2022-09-16T13:09:39.208Z,16.93
2022-09-16T13:20:06.281Z,16.91
2022-09-16T14:11:12.613Z,16.51
2022-09-16T14:14:05.137Z,16.22
2022-09-16T14:20:38.049Z,16.20
2022-09-16T14:23:31.736Z,15.84
2022-09-16T14:33:39.124Z,16.19
2022-09-16T14:36:11.014Z,16.80
2022-09-16T14:39:07.186Z,16.72
2022-09-16T14:41:54.662Z,16.38
2022-09-16T14:58:49.970Z,16.27
2022-09-16T15:01:54.106Z,15.97
2022-09-16T15:04:54.613Z,16.09
2022-09-16T15:08:12.795Z,16.21
2022-09-16T15:10:50.001Z,16.01
2022-09-16T15:55:00.585Z,16.20
2022-09-16T16:01:40.474Z,16.30
2022-09-16T16:04:50.474Z,15.83
2022-09-16T16:07:59.138Z,15.93
2022-09-16T16:10:39.461Z,15.97
2022-09-16T16:13:06.244Z,16.10
2022-09-16T16:18:34.725Z,15.68
2022-09-16T16:21:17.251Z,15.61
2022-09-16T16:31:47.888Z,15.49
2022-09-16T16:42:10.271Z,14.90
2022-09-16T16:50:27.509Z,15.19
2022-09-16T16:56:51.169Z,14.71
2022-09-16T16:59:33.768Z,14.90
2022-09-16T17:02:14.992Z,14.95
2022-09-16T17:04:57.459Z,14.68
2022-09-16T17:07:57.237Z,14.91
2022-09-16T17:25:28.762Z,14.44
2022-09-16T17:46:18.866Z,14.24
2022-09-16T17:51:50.962Z,13.85
2022-09-16T17:54:25.805Z,13.99
2022-09-16T17:56:52.974Z,14.13
2022-09-16T17:59:20.028Z,13.98
2022-09-16T18:01:47.108Z,13.94
2022-09-16T18:04:13.610Z,13.96
2022-09-16T18:06:53.641Z,13.82
2022-09-16T18:09:20.163Z,13.95
2022-09-16T18:11:47.310Z,13.94
2022-09-16T18:14:14.771Z,13.84
2022-09-16T18:16:42.683Z,13.89
2022-09-16T18:19:09.348Z,13.81
2022-09-16T18:21:42.623Z,13.98
2022-09-16T18:27:57.069Z,13.82
2022-09-16T18:30:25.150Z,13.81
2022-09-16T18:32:52.371Z,14.03
2022-09-16T18:35:19.162Z,13.95
2022-09-16T18:37:57.950Z,14.06
2022-09-16T18:47:02.987Z,14.07
2022-09-16T18:50:01.346Z,14.40
2022-09-16T18:52:31.555Z,14.15
2022-09-16T18:55:09.235Z,14.07
2022-09-16T18:57:43.468Z,14.09
2022-09-16T19:07:07.964Z,13.36
2022-09-16T19:09:37.794Z,13.25
2022-09-16T19:17:15.308Z,13.43
2022-09-16T19:54:17.620Z,11.70
2022-09-16T20:00:55.937Z,11.67
2022-09-16T20:18:41.696Z,11.38
2022-09-16T20:21:24.836Z,11.05
2022-09-16T20:24:14.130Z,10.94
2022-09-16T20:27:05.060Z,11.17
2022-09-16T20:33:31.262Z,11.36
2022-09-16T20:36:10.014Z,11.08
2022-09-16T20:47:02.766Z,11.17
2022-09-16T21:01:47.040Z,11.28
2022-09-16T21:04:19.966Z,10.82
2022-09-16T21:06:47.207Z,10.69
2022-09-16T21:09:15.803Z,10.65
2022-09-16T21:11:45.652Z,10.47
2022-09-16T21:14:15.322Z,10.87
2022-09-16T21:16:45.373Z,11.18
2022-09-16T21:19:15.714Z,11.19
2022-09-16T21:21:44.586Z,10.76
2022-09-16T21:24:14.491Z,10.94
2022-09-16T21:26:47.939Z,10.54
2022-09-16T21:29:21.379Z,10.44
2022-09-16T21:31:48.926Z,10.61
2022-09-16T21:34:20.561Z,10.49
2022-09-16T21:36:50.550Z,10.61
2022-09-16T21:39:18.919Z,10.71
2022-09-16T21:41:47.132Z,10.83
2022-09-16T21:44:19.037Z,10.65
2022-09-16T21:46:46.696Z,10.59
2022-09-16T21:49:30.440Z,10.94
2022-09-16T21:51:59.201Z,10.38
2022-09-16T21:54:27.357Z,10.53
2022-09-16T21:56:54.438Z,10.67
2022-09-16T22:03:23.411Z,10.83
2022-09-16T22:05:51.563Z,10.97
2022-09-16T22:08:26.904Z,10.83
2022-09-16T22:10:53.650Z,10.63
2022-09-16T22:13:20.504Z,10.83
2022-09-16T22:15:52.144Z,10.57
2022-09-16T22:18:18.757Z,10.63
2022-09-16T22:20:45.476Z,10.57
2022-09-16T22:23:12.039Z,10.97
2022-09-16T22:25:38.530Z,10.56
2022-09-16T22:28:10.559Z,10.59
2022-09-16T22:30:37.052Z,10.63
2022-09-16T22:33:06.991Z,10.54
2022-09-16T22:35:36.311Z,10.85
2022-09-16T22:38:04.369Z,10.61
2022-09-16T22:40:31.427Z,11.03
2022-09-16T22:42:58.627Z,10.58
2022-09-16T22:45:25.504Z,10.77
2022-09-16T22:47:54.512Z,11.06
2022-09-16T22:50:21.261Z,11.00
2022-09-16T22:52:47.727Z,11.01
2022-09-16T22:55:14.319Z,10.62
2022-09-16T22:57:41.011Z,10.83
2022-09-16T23:00:12.681Z,10.94
2022-09-16T23:02:42.236Z,10.81
2022-09-16T23:05:11.080Z,10.79
2022-09-16T23:07:41.667Z,10.78
2022-09-16T23:10:10.564Z,10.76
2022-09-16T23:12:38.048Z,10.77
2022-09-16T23:15:06.127Z,10.73
2022-09-16T23:17:32.918Z,11.00
2022-09-16T23:19:59.459Z,11.14
2022-09-16T23:22:26.025Z,10.71
2022-09-16T23:24:52.862Z,11.15
2022-09-16T23:27:21.606Z,11.05
2022-09-16T23:29:48.152Z,10.90
2022-09-16T23:32:14.679Z,10.82
2022-09-16T23:34:41.280Z,10.68
2022-09-16T23:37:07.816Z,11.07
2022-09-16T23:39:34.358Z,11.35
2022-09-16T23:42:00.837Z,11.25
2022-09-16T23:44:27.991Z,11.16
2022-09-16T23:46:54.568Z,11.30
2022-09-16T23:49:21.187Z,11.12
2022-09-16T23:51:48.038Z,11.05
2022-09-16T23:54:14.738Z,11.27
2022-09-16T23:56:43.287Z,11.28
2022-09-16T23:59:10.261Z,11.26
